Prochaines Courses

Connexion

Saint Firmin 10 Km

10 KM SAINT FIRMIN du 27/09/14 (Reelle 10,2)
Rang Dossard Nom Prénom Temps Cat Rang Cat Ecart Ecart Cat Club Vitesse Km/h Temps au Km
1 387 LEPRETRE BENJAMIN 00:36:53 CAM 1 00:00:00 00:00:00 TOA 16,593 03:37
2 359 THIBAUT NICOLAS 00:37:19 SEM 1 00:00:26 00:00:00 TOUQUET OPALE ATHLETISME 16,400 03:40
3 394 VAX THIBAUT 00:38:15 ESM 1 00:01:22 00:00:00 ASSA 16,000 03:45
4 403 SERGENT ROMUALD 00:39:11 SEM 2 00:02:18 00:01:52 TOA 15,619 03:50
5 368 PAWLICKI NATHAN 00:39:32 JUM 1 00:02:39 00:00:00   15,481 03:53
6 430 LEROUX GUILLAUME 00:39:37 SEM 3 00:02:44 00:02:18 TEAM TRAIL 62 15,448 03:53
7 401 VAMBRE LAURENT 00:40:08 SEM 4 00:03:15 00:02:49 NON LICENCIE 15,249 03:56
8 377 GUILBERT ETIENNE 00:40:53 V1M 1 00:04:00 00:00:00 BERCK A C O 14,969 04:00
9 302 SAILLY JULIEN 00:40:59 SEM 5 00:04:06 00:03:40   14,933 04:01
10 404 HODIQUE HERVE 00:41:11 V1M 2 00:04:18 00:00:18 TEAM TRAIL 62 14,860 04:02
11 308 DUCATEL JEROME 00:41:20 SEM 6 00:04:27 00:04:01   14,806 04:03
12 385 BRUNEL STEPHANE 00:41:28 V1M 3 00:04:35 00:00:35 ATHLETISME CLUB OUTREAU 14,759 04:04
13 351 VERHAMME PIERRE 00:41:44 CAM 2 00:04:51 00:04:51   14,665 04:05
14 410 PODVIN CLAUDINE 00:41:50 SEF 1 00:04:57 00:00:00 TOUQUET OPALE ATHLETISME 14,629 04:06
15 426 HENOCQUE PASCAL 00:41:57 V2M 1 00:05:04 00:00:00 NON LICENCIE 14,589 04:07
16 444 TAVERNE DAMIEN 00:41:58 SEM 7 00:05:05 00:04:39 TOUQUET OPALE ATHLETISME 14,583 04:07
17 439 VANDAELE JEROME 00:42:39 SEM 8 00:05:46 00:05:20 NON LICENCIE 14,349 04:11
18 445 ROUTIER MAUD 00:42:58 SEF 2 00:06:05 00:01:08 PATRIOTES DE GUINES 14,244 04:13
19 381 MOYSE CHRISTOPHE 00:43:42 V1M 4 00:06:49 00:02:49 TOUQUET OPALE ATHLETISME 14,005 04:17
20 375 CARPENTIER NICOLAS 00:44:06 SEM 9 00:07:13 00:06:47 TOUQUET OPALE ATHLETISME 13,878 04:19
21 396 DAGNEAUX FABIEN 00:44:19 V1M 5 00:07:26 00:03:26 NON LICENCIE 13,810 04:21
22 393 MALLIOPOULOS XAVIER 00:44:21 V2M 2 00:07:28 00:02:24 BERCK A C O 13,799 04:21
23 328 PRIEZ PHILIPPE 00:44:38 V3M 1 00:07:45 00:00:00   13,712 04:23
24 324 DUMONT GEORGES 00:44:58 V1M 6 00:08:05 00:04:05 NON LICENCIE 13,610 04:25
25 432 DENIS ROMAIN 00:45:19 SEM 10 00:08:26 00:08:00 NON LICENCIE 13,505 04:27
26 397 LENGAGNE KARL 00:45:20 V1M 7 00:08:27 00:04:27 WIMEREUX RUNNING CLUB 13,500 04:27
27 417 BEQUET DAVID 00:45:22 V1M 8 00:08:29 00:04:29 NON LICENCIE 13,490 04:27
28 332 SAILLY ROMAIN 00:45:39 SEM 11 00:08:46 00:08:20 NON LICENCIE 13,406 04:29
29 380 SERGENT MARTIN 00:45:54 JUM 2 00:09:01 00:06:22 NON LICENCIE 13,333 04:30
30 390 DEMORY DIDIER 00:46:50 V2M 3 00:09:57 00:04:53 TRIATHLON CLUB LIEVIN 13,068 04:35
31 434 GLINIAC THIERRY 00:47:48 V1M 9 00:10:55 00:06:55 NON LICENCIE 12,803 04:41
32 405 SALON PIERRE 00:47:55 JUM 3 00:11:02 00:08:23 NON LICENCIE 12,772 04:42
33 333 NAJMI AICHA 00:48:19 V1F 1 00:11:26 00:00:00 LE DRAPEAU 12,666 04:44
34 419 FOURNIER CLEMENT 00:48:21 ESM 2 00:11:28 00:10:06 NON LICENCIE 12,658 04:44
35 382 ROBIN JULIEN 00:48:24 SEM 12 00:11:31 00:11:05 NON LICENCIE 12,645 04:45
36 388 PEVROT ADRIEN 00:48:40 CAM 3 00:11:47 00:11:47 TOA 12,575 04:46
37 416 MARGOLLE REGINALD 00:48:59 SEM 13 00:12:06 00:11:40 NON LICENCIE 12,494 04:48
38 392 COPPIN ANNE-FRANCE 00:49:27 SEF 3 00:12:34 00:07:37 NON LICENCIE 12,376 04:51
39 325 FIOLET OLIVIER 00:49:27 V1M 10 00:12:34 00:08:34 NON LICENCIE 12,376 04:51
40 318 DUHAMEL VINCENT 00:49:35 V1M 11 00:12:42 00:08:42 NON LICENCIE 12,343 04:52
41 420 PRUVOST PIERRE 00:49:48 SEM 14 00:12:55 00:12:29 NON LICENCIE 12,289 04:53
42 407 BERNARD SYLVIE 00:49:57 V1F 2 00:13:04 00:01:38 LE DRAPEAU 12,252 04:54
43 373 PAQUES ERIC 00:49:59 V2M 4 00:13:06 00:08:02 LE DRAPEAU 12,244 04:54
44 370 HANON JEAN-PIERRE 00:50:00 V2M 5 00:13:07 00:08:03 LE DRAPEAU 12,240 04:54
45 313 HENGUELLE BETTY 00:50:09 V1F 3 00:13:16 00:01:50 ELAN FRUGEOIS 12,203 04:55
46 349 LOEUILLET FRANCOIS 00:50:35 V1M 12 00:13:42 00:09:42   12,099 04:58
47 438 MAILLARD - BIRE PASCAL 00:50:39 V2M 6 00:13:46 00:08:42 NON LICENCIE 12,083 04:58
48 418 BAILLET GAUTHIER 00:50:40 ESM 3 00:13:47 00:12:25 NON LICENCIE 12,079 04:58
49 369 THUILLIER RENAUD 00:50:41 SEM 15 00:13:48 00:13:22 NON LICENCIE 12,075 04:58
50 301 SAILLY ALAIN 00:50:42 V2M 7 00:13:49 00:08:45 NON LICENCIE 12,071 04:58
51 406 SALON PATRICK 00:50:44 V2M 8 00:13:51 00:08:47 CALOTTERIE 12,063 04:58
52 352 THOREL CYRIL 00:50:46 V1M 13 00:13:53 00:09:53 BERCK A C O 12,055 04:59
53 343 LOE DENISE 00:50:49 V1M 14 00:13:56 00:09:56   12,043 04:59
54 367 LEJOSNE LUC 00:51:18 V2M 9 00:14:25 00:09:21   11,930 05:02
55 436 MAMELIN ANTONY 00:51:25 CAM 4 00:14:32 00:14:32 NON LICENCIE 11,903 05:02
56 376 SCHOTTE GERMAIN 00:51:26 CAM 5 00:14:33 00:14:33   11,899 05:03
57 315 VAILLART PATRICE 00:51:50 V2M 10 00:14:57 00:09:53   11,807 05:05
58 422 FRANCOIS MARC-ANTOINE 00:52:04 SEM 16 00:15:11 00:14:45 NON LICENCIE 11,754 05:06
59 322 REGNIER ANDRE 00:52:11 V2M 11 00:15:18 00:10:14 ELAN FRUGEOIS 11,728 05:07
60 366 LIENARD LAURENT 00:52:31 V1M 15 00:15:38 00:11:38 NON LICENCIE 11,653 05:09
61 348 PODEVIN SERGE 00:52:35 V2M 12 00:15:42 00:10:38   11,639 05:09
62 409 AUVRAY THOMAS 00:52:44 SEM 17 00:15:51 00:15:25 NON LICENCIE 11,606 05:10
63 305 DAVID EDITH 00:52:56 V2F 1 00:16:03 00:00:00 NON LICENCIE 11,562 05:11
64 384 DELESTREZ MARIE-NOELLE 00:53:06 V2F 2 00:16:13 00:00:10 NON LICENCIE 11,525 05:12
65 310 DEBRUXELLES ALAIN 00:53:08 V3M 2 00:16:15 00:08:30 NON LICENCIE 11,518 05:13
66 334 EDMONT PHILIPPE 00:53:30 V2M 13 00:16:37 00:11:33 CALOTTERIE 11,439 05:15
67 429 MIONNET MODESTINE 00:53:46 SEF 4 00:16:53 00:11:56 TEAM TRAIL 62 11,383 05:16
68 357 PIGNEL DAVID 00:54:00 V1M 16 00:17:07 00:13:07 NON LICENCIE 11,333 05:18
69 411 FAIT FRANCK 00:54:01 SEM 18 00:17:08 00:16:42 NON LICENCIE 11,330 05:18
70 399 THOMAS JEAN-PIERRE 00:54:05 V4M 1 00:17:12 00:00:00 CALOTTERIE 11,316 05:18
71 379 TOUVEREY FABRICE 00:54:05 V2M 14 00:17:12 00:12:08 CALOTTERIE 11,316 05:18
72 423 VAN DOREN MICHEL 00:54:10 V3M 3 00:17:17 00:09:32 TOA 11,298 05:19
73 317 BOCHU MICHEL 00:54:19 V2M 15 00:17:26 00:12:22 NON LICENCIE 11,267 05:20
74 386 MOREL LOUIS 00:54:21 CAM 6 00:17:28 00:17:28 NON LICENCIE 11,260 05:20
75 330 VERGEOT CLAUDE 00:54:29 V3M 4 00:17:36 00:09:51 NON LICENCIE 11,233 05:20
76 431 HAUDIQUET JULIEN 00:54:34 SEM 19 00:17:41 00:17:15 OMNISPORT CAMPAGNE 11,216 05:21
77 372 HANON LILIANE 00:54:38 V2F 3 00:17:45 00:01:42 LE DRAPEAU 11,202 05:21
78 311 LEFEBVRE DENISE 00:54:51 V3F 1 00:17:58 00:00:00 NON LICENCIE 11,158 05:23
79 440 LECERF BASTIEN 00:54:51 ESM 4 00:17:58 00:16:36 NON LICENCIE 11,158 05:23
80 414 LEBAS BENOIT 00:54:54 V1M 17 00:18:01 00:14:01 TOUQUET OPALE ATHLETISME 11,148 05:23
81 358 LAMOUR CECILE 00:54:59 V1F 4 00:18:06 00:06:40   11,131 05:23
82 321 COQUART JULES 00:55:06 V3M 5 00:18:13 00:10:28 NON LICENCIE 11,107 05:24
83 413 LEPRETRE CLEMENT 00:55:24 SEM 20 00:18:31 00:18:05 NON LICENCIE 11,047 05:26
84 342 VEILLARD EUGENE 00:55:27 V4M 2 00:18:34 00:01:22 NON LICENCIE 11,037 05:26
85 424 DEWEIRDT YVES 00:55:30 V3M 6 00:18:37 00:10:52 LA CALOTERIE OMNISPORTS 11,027 05:26
86 427 RAMET GUILLAUME 00:55:49 CAM 7 00:18:56 00:18:56 NON LICENCIE 10,964 05:28
87 374 LEBEGUE THERESE 00:56:08 V2F 4 00:19:15 00:03:12 LE DRAPEAU 10,903 05:30
88 435 GLINIAC COLETTE 00:56:10 V1F 5 00:19:17 00:07:51 NON LICENCIE 10,896 05:30
89 437 CLETY CELINE 00:56:30 SEF 5 00:19:37 00:14:40 TOUQUET ATHLETIQUE CLUB 10,832 05:32
90 335 DESBONNET STEPHANE 00:56:51 V2M 16 00:19:58 00:14:54   10,765 05:34
91 365 LIENARD CHRISTINE 00:56:54 V1F 6 00:20:01 00:08:35 NON LICENCIE 10,756 05:35
92 425 LAVIALLE CEDRIC 00:56:54 V1M 18 00:20:01 00:16:01 NON LICENCIE 10,756 05:35
93 363 LENOIR STEPHANE 00:56:58 V1M 19 00:20:05 00:16:05 NON LICENCIE 10,743 05:35
94 323 REGNIER ANNE MARIE 00:57:33 V1F 7 00:20:40 00:09:14 ELAN FRUGEOIS 10,634 05:39
95 360 CRETEL LAURENCE 00:57:57 V1F 8 00:21:04 00:09:38 CS NESLES 10,561 05:41
96 441 CARPENTIER ANITA 00:58:02 V1F 9 00:21:09 00:09:43 NON LICENCIE 10,546 05:41
97 408 ROGEL OPHELIE 00:58:08 SEF 6 00:21:15 00:16:18 NON LICENCIE 10,528 05:42
98 312 THIEBAUT CATHY 00:58:12 V1F 10 00:21:19 00:09:53 CALOTTERIE 10,515 05:42
99 306 GREMONT ANNE MARIE 00:58:12 V2F 5 00:21:19 00:05:16 CALOTTERIE 10,515 05:42
100 446 BEERNAERT LAURENT 00:58:12 V1M 20 00:21:19 00:17:19 CALOTTERIE 10,515 05:42
101 398 REMBUR VIRGINIE 00:58:34 V2F 6 00:21:41 00:05:38 TOUQUET OPALE ATHLETISME 10,450 05:45
102 378 GUILBERT FREDERIC 00:58:37 V1M 21 00:21:44 00:17:44 ELAN FRUGEOIS 10,441 05:45
103 428 DESMOUDT LEA 00:58:39 CAF 1 00:21:46 00:00:00 ELAN FRUGEOIS 10,435 05:45
104 337 VASSEUR AURELIEN 00:59:25 SEF 7 00:22:32 00:17:35   10,300 05:50
105 320 COQUART BEATRICE 00:59:45 V2F 7 00:22:52 00:06:49 ELAN FRUGEOIS 10,243 05:51
106 338 DELPLANQUE THIERRY 01:00:09 V2M 17 00:23:16 00:18:12 CALOTTERIE 10,175 05:54
107 346 FRANCOIS XAVIER 01:00:17 V1M 22 00:23:24 00:19:24   10,152 05:55
108 339 RAMET CORALIE 01:00:26 V1F 11 00:23:33 00:12:07 NON LICENCIE 10,127 05:55
109 341 RIGOLLE DOMINIQUE 01:00:39 V2M 18 00:23:46 00:18:42 LMA 10,091 05:57
110 383 BAILLIEU ROSELINE 01:01:02 SEF 8 00:24:09 00:19:12 NON LICENCIE 10,027 05:59
111 364 SAELEN PATRICIA 01:01:04 V1F 12 00:24:11 00:12:45 NON LICENCIE 10,022 05:59
112 361 BETHOUART VALERIE 01:01:05 V1F 13 00:24:12 00:12:46 NON LICENCIE 10,019 05:59
113 314 CODRON NADIA 01:01:05 V1F 14 00:24:12 00:12:46 NON LICENCIE 10,019 05:59
114 362 SAELEN GEORGES 01:01:08 V2M 19 00:24:15 00:19:11   10,011 06:00
115 433 BOYER KARINE 01:01:15 V1F 15 00:24:22 00:12:56 BERCK A C O 9,992 06:00
116 442 CORDIER HUGUES 01:01:19 SEM 21 00:24:26 00:24:00 NON LICENCIE 9,981 06:01
117 443 CORDIER CAROLINE 01:01:19 SEF 9 00:24:26 00:19:29 NON LICENCIE 9,981 06:01
118 395 DAVID LYDIE 01:01:38 SEF 10 00:24:45 00:19:48 NON LICENCIE 9,930 06:03
119 316 CARON CATHERINE 01:01:42 V2F 8 00:24:49 00:08:46 NON LICENCIE 9,919 06:03
120 329 USDIKEN CORINNE 01:02:05 V2F 9 00:25:12 00:09:09   9,858 06:05
121 354 MACHOWIAK FRANCIS 01:02:17 V3M 7 00:25:24 00:17:39 BERCK A C O 9,826 06:06
122 336 FRANCE HANNAH 01:02:50 V1F 16 00:25:57 00:14:31 NON LICENCIE 9,740 06:10
123 356 BOURNAILLIE HERVEY 01:03:08 V3M 8 00:26:15 00:18:30   9,694 06:11
124 344 STEC SANDRINE 01:03:21 V1F 17 00:26:28 00:15:02   9,661 06:13
125 347 DENUDT COLETTE 01:03:23 V2F 10 00:26:30 00:10:27 ELAN FRUGEOIS 9,656 06:13
126 415 PETIT NATHALIE 01:03:45 V1F 18 00:26:52 00:15:26 NON LICENCIE 9,600 06:15
127 421 COUSIN CHARLOTTE 01:04:03 SEF 11 00:27:10 00:22:13 NON LICENCIE 9,555 06:17
128 326 FRERE THERESE 01:04:10 V2F 11 00:27:17 00:11:14 NON LICENCIE 9,538 06:17
129 319 FROMONT VINCENT 01:04:57 SEM 22 00:28:04 00:27:38   9,423 06:22
130 389 GERBEAU ANDRE 01:06:27 V3M 9 00:29:34 00:21:49 NON LICENCIE 9,210 06:31
131 371 MODOLO FANNY 01:07:15 V1F 19 00:30:22 00:18:56 TEAM TRAIL 62 9,100 06:36
132 327 GAILLARD AURELIEN 01:07:43 SEM 23 00:30:50 00:30:24 NON LICENCIE 9,038 06:38
133 345 DELPIERRE AUDREY 01:10:18 SEF 12 00:33:25 00:28:28   8,706 06:54
134 355 FOURNIER CELINE 01:15:58 V1F 20 00:39:05 00:27:39   8,056 07:27
135 353 SENLECQUES ANGELE 01:15:58 SEF 13 00:39:05 00:34:08 NON LICENCIE 8,056 07:27
136 400 LEBEL VERONIQUE 01:16:32 V2F 12 00:39:39 00:23:36 CALOTTERIE 7,997 07:30
137 391 D'HAILLECOURT CHRISTELLE 01:16:38 V1F 21 00:39:45 00:28:19 NON LICENCIE 7,986 07:31
138 304 FOURNIER CRISTOPHE 01:21:17 ESM 5 00:44:24 00:43:02   7,529 07:58
139 303 HYVART NADIA 01:21:17 V1F 22 00:44:24 00:32:58 NON LICENCIE 7,529 07:58

 

Juillet 2018
Lun Mar Mer Jeu Ven Sam Dim
1
2
3
4
5
6
7
8
9
10
11
12
13
14
15
16
17
18
19
20
21
22
23
24
25
26
27
29
30
31